createdAt,value
2023-03-07T00:01:08.666Z,16.00
2023-03-07T00:03:36.971Z,16.90
2023-03-07T00:06:08.865Z,15.83
2023-03-07T00:08:36.634Z,17.80
2023-03-07T00:11:06.490Z,16.63
2023-03-07T00:13:36.589Z,16.03
2023-03-07T00:16:04.272Z,15.93
2023-03-07T00:18:32.626Z,17.77
2023-03-07T00:21:11.163Z,16.40
2023-03-07T00:23:40.895Z,18.13
2023-03-07T00:26:11.821Z,15.83
2023-03-07T00:28:39.836Z,15.27
2023-03-07T00:31:09.443Z,15.43
2023-03-07T00:33:37.351Z,15.50
2023-03-07T00:36:16.078Z,14.87
2023-03-07T00:38:43.698Z,14.43
2023-03-07T00:41:13.109Z,16.40
2023-03-07T00:43:40.832Z,14.37
2023-03-07T00:46:08.693Z,14.33
2023-03-07T00:48:38.177Z,14.67
2023-03-07T00:51:07.471Z,14.57
2023-03-07T00:53:35.614Z,14.07
2023-03-07T00:56:10.032Z,16.67
2023-03-07T00:58:37.007Z,14.30
2023-03-07T01:01:06.210Z,14.13
2023-03-07T01:03:34.367Z,13.63
2023-03-07T01:06:23.170Z,14.67
2023-03-07T01:08:50.578Z,14.43
2023-03-07T01:11:17.868Z,13.30
2023-03-07T01:13:45.132Z,14.87
2023-03-07T01:16:16.552Z,13.87
2023-03-07T01:18:44.580Z,13.97
2023-03-07T01:21:18.744Z,13.53
2023-03-07T01:23:46.272Z,13.33
2023-03-07T01:26:19.512Z,14.43
2023-03-07T01:28:47.350Z,13.77
2023-03-07T01:31:14.432Z,14.03
2023-03-07T01:33:41.889Z,13.70
2023-03-07T01:36:25.305Z,12.77
2023-03-07T01:38:56.293Z,14.57
2023-03-07T01:41:24.155Z,16.97
2023-03-07T01:43:52.605Z,14.10
2023-03-07T01:46:31.312Z,14.23
2023-03-07T01:49:03.848Z,14.13
2023-03-07T01:51:34.347Z,13.73
2023-03-07T01:54:06.452Z,14.40
2023-03-07T01:56:34.562Z,14.60
2023-03-07T01:59:01.723Z,15.10
2023-03-07T02:01:28.977Z,13.90
2023-03-07T02:04:11.816Z,13.90
2023-03-07T02:06:39.353Z,13.87
2023-03-07T02:09:13.271Z,12.93
2023-03-07T02:11:44.844Z,13.20
2023-03-07T02:14:12.112Z,14.13
2023-03-07T02:16:39.875Z,13.37
2023-03-07T02:19:36.811Z,13.00
2023-03-07T02:22:14.134Z,13.23
2023-03-07T02:24:46.211Z,12.40
2023-03-07T02:27:14.318Z,11.87
2023-03-07T02:29:41.404Z,11.53
2023-03-07T02:32:09.379Z,11.83
2023-03-07T02:34:36.481Z,10.87
2023-03-07T02:37:25.098Z,11.03
2023-03-07T02:39:54.846Z,11.27
2023-03-07T02:42:25.475Z,11.03
2023-03-07T02:45:03.474Z,11.60
2023-03-07T02:47:33.879Z,11.30
2023-03-07T02:50:01.524Z,11.43
2023-03-07T02:52:29.866Z,10.50
2023-03-07T02:54:58.536Z,11.23
2023-03-07T02:57:29.866Z,9.30
2023-03-07T02:59:56.868Z,10.37
2023-03-07T03:02:23.818Z,11.33
2023-03-07T03:04:51.048Z,11.40
2023-03-07T03:07:18.264Z,11.17
2023-03-07T03:09:45.381Z,11.27
2023-03-07T03:12:12.408Z,11.90
2023-03-07T03:14:39.456Z,11.47
2023-03-07T03:17:06.515Z,12.97
2023-03-07T03:19:33.518Z,13.83
2023-03-07T03:22:00.737Z,13.50
2023-03-07T03:24:31.188Z,13.00
2023-03-07T03:26:58.720Z,16.57
2023-03-07T03:29:27.612Z,16.87
2023-03-07T03:31:58.815Z,14.57
2023-03-07T03:34:25.815Z,12.63
2023-03-07T03:36:52.877Z,14.57
2023-03-07T03:39:21.100Z,12.77
2023-03-07T03:41:52.705Z,14.00
2023-03-07T03:44:22.185Z,14.03
2023-03-07T03:46:49.333Z,13.70
2023-03-07T03:49:19.592Z,13.23
2023-03-07T03:51:49.657Z,13.37
2023-03-07T03:54:17.593Z,12.00
2023-03-07T03:56:44.730Z,10.77
2023-03-07T03:59:11.687Z,9.73
2023-03-07T04:01:38.605Z,8.70
2023-03-07T04:04:06.345Z,7.77
2023-03-07T04:06:34.900Z,7.73
2023-03-07T04:09:04.764Z,8.00
2023-03-07T04:11:33.076Z,7.93
2023-03-07T04:14:00.050Z,7.93
2023-03-07T04:16:27.609Z,8.27
2023-03-07T04:18:55.448Z,7.50
2023-03-07T04:21:22.981Z,7.80
2023-03-07T04:23:55.735Z,7.83
2023-03-07T04:26:24.265Z,8.03
2023-03-07T04:28:51.301Z,7.40
2023-03-07T04:31:25.418Z,6.43
2023-03-07T04:33:53.844Z,6.23
2023-03-07T04:36:22.166Z,6.20
2023-03-07T04:38:50.752Z,5.57
2023-03-07T04:41:20.704Z,5.77
2023-03-07T04:43:50.669Z,5.97
2023-03-07T04:46:19.044Z,6.07
2023-03-07T04:48:47.175Z,6.60
2023-03-07T04:51:14.307Z,6.47
2023-03-07T04:53:41.922Z,6.20
2023-03-07T04:56:09.997Z,6.77
2023-03-07T04:58:38.900Z,7.07
2023-03-07T05:01:06.645Z,8.40
2023-03-07T05:03:35.575Z,7.43
2023-03-07T05:06:05.635Z,6.87
2023-03-07T05:08:34.028Z,6.60
2023-03-07T05:11:01.452Z,7.00
2023-03-07T05:13:29.133Z,6.47
2023-03-07T05:15:58.302Z,6.20
2023-03-07T05:18:26.910Z,6.73
2023-03-07T05:20:55.885Z,7.10
2023-03-07T05:23:23.541Z,8.47
2023-03-07T05:25:51.652Z,7.33
2023-03-07T05:28:19.535Z,8.10
2023-03-07T05:30:47.680Z,8.50
2023-03-07T05:33:15.161Z,8.20
2023-03-07T05:35:42.917Z,8.57
2023-03-07T05:38:11.995Z,9.43
2023-03-07T05:40:40.159Z,9.77
2023-03-07T05:43:08.133Z,13.13
2023-03-07T05:45:35.454Z,10.97
2023-03-07T05:48:02.367Z,12.07
2023-03-07T05:50:30.949Z,11.63
2023-03-07T05:52:58.515Z,11.93
2023-03-07T05:55:28.712Z,11.80
2023-03-07T05:57:55.729Z,12.10
2023-03-07T06:00:23.154Z,12.97
2023-03-07T06:02:55.792Z,12.40
2023-03-07T06:05:25.192Z,15.90
2023-03-07T06:07:52.455Z,13.67
2023-03-07T06:10:19.569Z,15.23
2023-03-07T06:12:53.289Z,14.47
2023-03-07T06:15:21.825Z,14.33
2023-03-07T06:17:53.765Z,14.03
2023-03-07T06:20:21.098Z,14.83
2023-03-07T06:22:48.855Z,14.57
2023-03-07T06:25:16.971Z,14.57
2023-03-07T06:27:44.369Z,14.77
2023-03-07T06:30:12.448Z,15.13
2023-03-07T06:32:40.238Z,15.77
2023-03-07T06:35:07.867Z,15.30
2023-03-07T06:37:34.876Z,15.23
2023-03-07T06:40:06.291Z,13.93
2023-03-07T06:42:35.598Z,13.30
2023-03-07T06:45:03.500Z,13.87
2023-03-07T06:47:30.458Z,13.50
2023-03-07T06:49:57.594Z,12.40
2023-03-07T06:52:24.714Z,13.37
2023-03-07T06:54:52.452Z,13.97
2023-03-07T06:57:19.482Z,13.57
2023-03-07T06:59:46.480Z,13.23
2023-03-07T07:02:14.987Z,12.90
2023-03-07T07:04:41.928Z,12.50
2023-03-07T07:07:09.100Z,12.67
2023-03-07T07:09:36.124Z,12.73
2023-03-07T07:12:04.990Z,13.00
2023-03-07T07:14:34.544Z,12.83
2023-03-07T07:17:01.979Z,13.17
2023-03-07T07:19:28.827Z,12.17
2023-03-07T07:21:57.580Z,13.13
2023-03-07T07:24:24.842Z,14.03
2023-03-07T07:26:53.197Z,12.63
2023-03-07T07:29:21.015Z,13.03
2023-03-07T07:31:49.859Z,13.57
2023-03-07T07:34:18.900Z,14.67
2023-03-07T07:36:46.894Z,14.70
2023-03-07T07:39:15.254Z,13.37
2023-03-07T07:41:44.929Z,13.77
2023-03-07T07:44:13.116Z,15.97
2023-03-07T07:46:52.453Z,16.63
2023-03-07T07:49:19.373Z,13.43
2023-03-07T07:51:46.722Z,13.97
2023-03-07T07:54:13.761Z,14.57
2023-03-07T07:56:41.309Z,14.47
2023-03-07T07:59:08.463Z,13.30
2023-03-07T08:01:35.529Z,13.50
2023-03-07T08:04:02.473Z,14.57
2023-03-07T08:06:29.668Z,15.70
2023-03-07T08:08:57.038Z,15.40
2023-03-07T08:11:24.560Z,15.17
2023-03-07T08:13:51.579Z,14.00
2023-03-07T08:16:22.762Z,11.20
2023-03-07T08:18:56.038Z,10.77
2023-03-07T08:21:26.990Z,9.83
2023-03-07T08:23:55.189Z,7.50
2023-03-07T08:26:22.671Z,7.07
2023-03-07T08:28:49.749Z,7.40
2023-03-07T08:31:19.063Z,7.03
2023-03-07T08:33:49.810Z,5.57
2023-03-07T08:36:17.067Z,6.03
2023-03-07T08:38:44.077Z,5.83
2023-03-07T08:41:11.016Z,6.83
2023-03-07T08:43:39.382Z,5.50
2023-03-07T08:46:06.677Z,5.97
2023-03-07T08:48:34.114Z,5.63
2023-03-07T08:51:06.925Z,6.20
2023-03-07T08:53:34.175Z,6.00
2023-03-07T08:56:01.188Z,5.20
2023-03-07T08:58:28.237Z,6.00
2023-03-07T09:00:55.157Z,5.23
2023-03-07T09:03:22.129Z,5.70
2023-03-07T09:05:49.196Z,5.87
2023-03-07T09:08:16.294Z,5.47
2023-03-07T09:10:43.342Z,5.23
2023-03-07T09:13:12.157Z,5.20
2023-03-07T09:15:40.753Z,5.00
2023-03-07T09:18:08.495Z,5.37
2023-03-07T09:20:35.470Z,5.80
2023-03-07T09:23:02.963Z,5.97
2023-03-07T09:25:30.356Z,5.43
2023-03-07T09:27:58.035Z,4.53
2023-03-07T09:30:27.141Z,5.63
2023-03-07T09:32:57.431Z,5.17
2023-03-07T09:35:24.923Z,3.23
2023-03-07T09:37:52.258Z,3.40
2023-03-07T09:40:26.182Z,2.80
2023-03-07T09:43:05.707Z,2.70
2023-03-07T09:46:19.948Z,2.80
2023-03-07T09:49:14.105Z,2.47
2023-03-07T09:51:47.413Z,3.00
2023-03-07T09:54:44.235Z,3.57
2023-03-07T09:57:47.954Z,2.50
2023-03-07T10:00:27.417Z,2.90
2023-03-07T10:03:18.363Z,3.40
2023-03-07T10:05:51.806Z,3.23
2023-03-07T10:08:22.149Z,11.97
2023-03-07T10:11:08.995Z,3.37
2023-03-07T10:13:54.232Z,3.37
2023-03-07T10:16:45.518Z,4.40
2023-03-07T10:19:24.572Z,6.23
2023-03-07T10:22:10.231Z,8.80
2023-03-07T10:24:56.153Z,11.20
2023-03-07T10:27:30.002Z,3.93
2023-03-07T10:30:00.062Z,3.00
2023-03-07T10:32:42.145Z,2.60
2023-03-07T10:35:12.160Z,2.63
2023-03-07T10:37:59.587Z,2.83
2023-03-07T10:40:46.374Z,3.00
2023-03-07T10:43:31.896Z,2.10
2023-03-07T10:46:26.250Z,2.30
2023-03-07T10:49:26.442Z,2.53
2023-03-07T10:52:26.449Z,2.37
2023-03-07T10:54:55.010Z,2.23
2023-03-07T10:57:27.956Z,2.70
2023-03-07T10:59:54.997Z,2.73
2023-03-07T11:02:44.733Z,3.20
2023-03-07T11:05:32.938Z,3.10
2023-03-07T11:08:01.383Z,3.23
2023-03-07T11:10:40.102Z,3.23
2023-03-07T11:13:18.436Z,3.70
2023-03-07T11:15:46.538Z,4.10
2023-03-07T11:18:39.485Z,4.50
2023-03-07T11:21:06.718Z,4.60
2023-03-07T11:23:33.702Z,4.87
2023-03-07T11:26:22.210Z,3.90
2023-03-07T11:29:05.405Z,4.07
2023-03-07T11:31:39.895Z,3.20
2023-03-07T11:34:12.695Z,3.60
2023-03-07T11:36:44.127Z,3.70
2023-03-07T11:39:31.813Z,4.10
2023-03-07T11:42:16.184Z,3.67
2023-03-07T11:44:54.341Z,4.77
2023-03-07T11:47:28.279Z,7.40
2023-03-07T11:49:55.158Z,7.20
2023-03-07T11:52:44.057Z,5.00
2023-03-07T11:55:38.421Z,7.00
2023-03-07T11:58:22.653Z,7.43
2023-03-07T12:00:55.781Z,6.47
2023-03-07T12:03:28.440Z,5.60
2023-03-07T12:06:23.032Z,6.13
2023-03-07T12:08:59.803Z,5.90
2023-03-07T12:11:44.752Z,8.53
2023-03-07T12:14:26.508Z,7.67
2023-03-07T12:17:14.189Z,7.10
2023-03-07T12:20:10.215Z,8.10
2023-03-07T12:22:55.866Z,8.60
2023-03-07T12:25:44.675Z,9.30
2023-03-07T12:28:11.839Z,7.50
2023-03-07T12:30:57.969Z,11.03
2023-03-07T12:33:34.523Z,9.03
2023-03-07T12:36:06.797Z,7.77
2023-03-07T12:38:40.077Z,9.27
2023-03-07T12:41:36.187Z,9.07
2023-03-07T12:44:22.072Z,8.87
2023-03-07T12:47:00.413Z,12.53
2023-03-07T12:49:41.019Z,9.67
2023-03-07T12:52:39.827Z,9.00
2023-03-07T12:55:45.750Z,11.37
2023-03-07T12:58:20.697Z,13.13
2023-03-07T13:00:54.222Z,14.33
2023-03-07T13:03:59.308Z,16.37
2023-03-07T13:06:27.063Z,14.83
2023-03-07T13:08:57.945Z,14.53
2023-03-07T13:11:31.204Z,14.77
2023-03-07T13:14:06.642Z,16.30
2023-03-07T13:16:40.296Z,17.37
2023-03-07T13:19:36.219Z,22.70
2023-03-07T13:22:24.008Z,18.10
2023-03-07T13:24:56.020Z,12.83
2023-03-07T13:27:52.730Z,11.13
2023-03-07T13:30:25.642Z,11.03
2023-03-07T13:32:56.286Z,12.80
2023-03-07T13:35:32.937Z,13.57
2023-03-07T13:38:44.341Z,9.73
2023-03-07T13:41:36.668Z,16.83
2023-03-07T13:44:04.278Z,10.97
2023-03-07T13:46:44.108Z,12.80
2023-03-07T13:49:11.724Z,9.93
2023-03-07T13:51:43.790Z,7.80
2023-03-07T13:54:14.516Z,8.57
2023-03-07T13:56:49.355Z,7.30
2023-03-07T13:59:27.732Z,9.13
2023-03-07T14:01:57.801Z,10.30
2023-03-07T14:04:39.443Z,9.00
2023-03-07T14:07:28.002Z,10.10
2023-03-07T14:10:21.522Z,9.93
2023-03-07T14:13:15.178Z,11.87
2023-03-07T14:15:57.422Z,11.03
2023-03-07T14:18:54.218Z,12.43
2023-03-07T14:21:39.744Z,12.67
2023-03-07T14:24:07.096Z,14.90
2023-03-07T14:26:38.836Z,14.13
2023-03-07T14:29:22.828Z,12.60
2023-03-07T14:31:56.786Z,13.30
2023-03-07T14:34:35.882Z,13.83
2023-03-07T14:37:17.234Z,16.07
2023-03-07T14:39:58.243Z,15.17
2023-03-07T14:42:34.372Z,17.20
2023-03-07T14:45:22.516Z,15.43
2023-03-07T14:47:49.287Z,13.97
2023-03-07T14:50:23.348Z,13.50
2023-03-07T14:52:55.955Z,14.63
2023-03-07T14:55:25.595Z,14.97
2023-03-07T14:57:54.753Z,15.07
2023-03-07T15:00:25.087Z,13.63
2023-03-07T15:02:58.433Z,13.93
2023-03-07T15:05:28.230Z,15.97
2023-03-07T15:07:55.638Z,13.47
2023-03-07T15:10:29.916Z,12.57
2023-03-07T15:12:57.987Z,12.47
2023-03-07T15:15:43.963Z,13.20
2023-03-07T15:18:28.872Z,12.87
2023-03-07T15:20:57.557Z,13.10
2023-03-07T15:23:29.786Z,12.23
2023-03-07T15:26:07.486Z,12.07
2023-03-07T15:28:37.224Z,12.40
2023-03-07T15:31:04.891Z,12.23
2023-03-07T15:33:32.941Z,10.87
2023-03-07T15:36:12.020Z,10.90
2023-03-07T15:38:44.517Z,12.30
2023-03-07T15:41:29.815Z,12.63
2023-03-07T15:44:12.128Z,21.77
2023-03-07T15:46:43.193Z,16.17
2023-03-07T15:49:26.023Z,15.27
2023-03-07T15:51:59.142Z,13.73
2023-03-07T15:54:41.652Z,14.87
2023-03-07T15:57:18.827Z,12.00
2023-03-07T16:00:01.607Z,12.47
2023-03-07T16:02:43.715Z,11.47
2023-03-07T16:05:19.835Z,11.83
2023-03-07T16:07:47.568Z,12.20
2023-03-07T16:10:14.691Z,11.33
2023-03-07T16:12:46.308Z,10.77
2023-03-07T16:15:18.328Z,11.20
2023-03-07T16:17:46.016Z,12.37
2023-03-07T16:20:21.224Z,12.93
2023-03-07T16:22:48.325Z,13.07
2023-03-07T16:25:15.803Z,12.47
2023-03-07T16:27:56.554Z,15.07
2023-03-07T16:30:26.418Z,13.60
2023-03-07T16:32:53.814Z,16.77
2023-03-07T16:35:24.528Z,14.87
2023-03-07T16:37:51.936Z,16.30
2023-03-07T16:40:20.274Z,18.33
2023-03-07T16:42:50.477Z,20.23
2023-03-07T16:45:26.134Z,17.57
2023-03-07T16:47:55.041Z,14.73
2023-03-07T16:50:25.620Z,18.10
2023-03-07T16:52:52.736Z,17.20
2023-03-07T16:55:19.955Z,17.53
2023-03-07T16:57:50.081Z,18.67
2023-03-07T17:00:20.866Z,19.80
2023-03-07T17:02:48.722Z,20.50
2023-03-07T17:05:27.297Z,21.47
2023-03-07T17:07:56.210Z,18.10
2023-03-07T17:10:24.440Z,17.50
2023-03-07T17:12:51.500Z,16.33
2023-03-07T17:15:22.199Z,16.90
2023-03-07T17:17:49.467Z,14.10
2023-03-07T17:20:22.243Z,11.90
2023-03-07T17:22:50.447Z,12.23
2023-03-07T17:25:17.820Z,11.57
2023-03-07T17:27:49.040Z,9.83
2023-03-07T17:30:24.293Z,8.40
2023-03-07T17:32:51.578Z,6.47
2023-03-07T17:35:19.398Z,4.97
2023-03-07T17:37:47.952Z,7.20
2023-03-07T17:40:15.132Z,12.30
2023-03-07T17:42:43.927Z,13.73
2023-03-07T17:45:12.711Z,10.87
2023-03-07T17:47:40.673Z,8.60
2023-03-07T17:50:09.116Z,9.43
2023-03-07T17:52:36.756Z,8.57
2023-03-07T17:55:09.348Z,5.97
2023-03-07T17:57:36.716Z,5.60
2023-03-07T18:00:13.149Z,5.03
2023-03-07T18:02:43.804Z,5.80
2023-03-07T18:05:13.106Z,4.10
2023-03-07T18:07:42.904Z,4.00
2023-03-07T18:10:11.680Z,3.63
2023-03-07T18:12:39.284Z,3.97
2023-03-07T18:15:11.780Z,3.30
2023-03-07T18:17:47.738Z,4.33
2023-03-07T18:20:18.292Z,7.83
2023-03-07T18:22:45.977Z,4.13
2023-03-07T18:25:15.615Z,4.67
2023-03-07T18:27:45.234Z,5.70
2023-03-07T18:30:12.805Z,7.40
2023-03-07T18:32:39.776Z,5.40
2023-03-07T18:35:07.864Z,8.17
2023-03-07T18:37:34.823Z,4.40
2023-03-07T18:40:02.032Z,8.90
2023-03-07T18:42:28.942Z,5.27
2023-03-07T18:44:55.940Z,4.90
2023-03-07T18:47:22.851Z,4.60
2023-03-07T18:49:51.279Z,5.23
2023-03-07T18:52:18.747Z,4.40
2023-03-07T18:54:45.655Z,4.10
2023-03-07T18:57:12.516Z,5.67
2023-03-07T18:59:39.526Z,6.20
2023-03-07T19:02:06.513Z,5.03
2023-03-07T19:04:33.439Z,4.00
2023-03-07T19:07:00.667Z,3.90
2023-03-07T19:09:28.182Z,3.87
2023-03-07T19:11:55.162Z,3.80
2023-03-07T19:14:22.123Z,4.87
2023-03-07T19:16:49.150Z,4.93
2023-03-07T19:19:16.352Z,5.20
2023-03-07T19:21:43.240Z,4.60
2023-03-07T19:24:11.781Z,5.57
2023-03-07T19:26:40.914Z,7.80
2023-03-07T19:29:09.731Z,6.80
2023-03-07T19:31:36.810Z,7.93
2023-03-07T19:34:06.285Z,19.53
2023-03-07T19:36:35.285Z,21.50
2023-03-07T19:39:03.719Z,7.83
2023-03-07T19:41:32.028Z,8.23
2023-03-07T19:44:00.877Z,9.30
2023-03-07T19:46:28.400Z,9.03
2023-03-07T19:48:55.608Z,17.83
2023-03-07T19:51:25.808Z,13.13
2023-03-07T19:53:56.833Z,15.63
2023-03-07T19:56:32.272Z,11.93
2023-03-07T19:59:01.056Z,14.40
2023-03-07T20:01:29.326Z,14.00
2023-03-07T20:03:59.423Z,15.90
2023-03-07T20:06:29.894Z,16.00
2023-03-07T20:08:58.753Z,20.80
2023-03-07T20:11:31.569Z,17.10
2023-03-07T20:14:00.314Z,17.33
2023-03-07T20:16:29.300Z,17.77
2023-03-07T20:18:58.749Z,17.20
2023-03-07T20:21:28.423Z,19.47
2023-03-07T20:23:59.554Z,22.20
2023-03-07T20:26:34.238Z,25.30
2023-03-07T20:29:02.430Z,23.97
2023-03-07T20:31:30.075Z,34.53
2023-03-07T20:33:59.244Z,31.63
2023-03-07T20:36:31.734Z,31.37
2023-03-07T20:39:00.897Z,29.90
2023-03-07T20:41:30.652Z,31.10
2023-03-07T20:44:03.751Z,32.73
2023-03-07T20:46:32.188Z,39.43
2023-03-07T20:49:03.204Z,30.73
2023-03-07T20:51:35.801Z,30.10
2023-03-07T20:54:05.214Z,29.83
2023-03-07T20:56:34.050Z,28.27
2023-03-07T20:59:01.569Z,27.63
2023-03-07T21:01:31.745Z,27.93
2023-03-07T21:04:08.384Z,25.63
2023-03-07T21:06:36.703Z,27.43
2023-03-07T21:09:07.929Z,26.23
2023-03-07T21:11:37.116Z,26.23
2023-03-07T21:14:04.369Z,26.77
2023-03-07T21:16:31.562Z,27.63
2023-03-07T21:19:03.862Z,27.83
2023-03-07T21:21:32.615Z,27.87
2023-03-07T21:24:00.164Z,29.07
2023-03-07T21:26:29.571Z,28.53
2023-03-07T21:28:57.767Z,32.27
2023-03-07T21:31:30.321Z,30.67
2023-03-07T21:34:06.408Z,29.10
2023-03-07T21:36:34.040Z,29.83
2023-03-07T21:39:04.077Z,30.80
2023-03-07T21:41:31.281Z,32.17
2023-03-07T21:43:59.210Z,32.27
2023-03-07T21:46:26.943Z,31.07
2023-03-07T21:48:54.021Z,32.20
2023-03-07T21:51:21.357Z,30.03
2023-03-07T21:53:48.437Z,30.57
2023-03-07T21:56:17.263Z,27.83
2023-03-07T21:58:48.192Z,28.37
2023-03-07T22:01:18.651Z,32.27
2023-03-07T22:03:55.940Z,29.97
2023-03-07T22:06:24.313Z,30.13
2023-03-07T22:08:52.193Z,29.60
2023-03-07T22:11:23.189Z,28.03
2023-03-07T22:13:50.387Z,27.43
2023-03-07T22:16:20.709Z,28.37
2023-03-07T22:18:55.798Z,28.70
2023-03-07T22:21:26.413Z,27.07
2023-03-07T22:23:58.101Z,29.87
2023-03-07T22:26:26.946Z,27.83
2023-03-07T22:28:54.601Z,28.83
2023-03-07T22:31:21.705Z,28.20
2023-03-07T22:33:50.091Z,27.33
2023-03-07T22:36:17.242Z,29.20
2023-03-07T22:38:44.647Z,26.97
2023-03-07T22:41:15.153Z,29.00
2023-03-07T22:43:42.701Z,28.73
2023-03-07T22:46:10.026Z,31.30
2023-03-07T22:48:38.376Z,29.73
2023-03-07T22:51:11.393Z,30.10
2023-03-07T22:53:41.812Z,27.70
2023-03-07T22:56:17.980Z,27.27
2023-03-07T22:58:45.145Z,27.40
2023-03-07T23:01:21.062Z,26.07
2023-03-07T23:03:53.616Z,26.00
2023-03-07T23:06:22.276Z,27.83
2023-03-07T23:08:51.901Z,27.77
2023-03-07T23:11:21.326Z,25.93
2023-03-07T23:13:48.249Z,27.53
2023-03-07T23:16:18.487Z,31.00
2023-03-07T23:18:46.941Z,26.00
2023-03-07T23:21:15.898Z,26.07
2023-03-07T23:23:43.006Z,26.03
2023-03-07T23:26:15.902Z,25.57
2023-03-07T23:28:42.807Z,25.50
2023-03-07T23:31:21.745Z,25.83
2023-03-07T23:33:49.427Z,24.13
2023-03-07T23:36:17.256Z,24.50
2023-03-07T23:38:46.233Z,23.17
2023-03-07T23:41:13.542Z,24.83
2023-03-07T23:43:41.159Z,24.20
2023-03-07T23:46:08.286Z,24.57
2023-03-07T23:48:35.362Z,23.13
2023-03-07T23:51:02.445Z,22.77
2023-03-07T23:53:29.544Z,25.20
2023-03-07T23:55:56.615Z,24.37
2023-03-07T23:58:23.652Z,23.33
